sensor_id;sensor_type;location;lat;lon;timestamp;P1;durP1;ratioP1;P2;durP2;ratioP2
36747;SDS011;22716;51.556;5.080;2023-06-10T00:00:49;13.70;;;5.73;;
36747;SDS011;22716;51.556;5.080;2023-06-10T00:03:17;7.53;;;4.75;;
36747;SDS011;22716;51.556;5.080;2023-06-10T00:05:44;10.48;;;5.45;;
36747;SDS011;22716;51.556;5.080;2023-06-10T00:08:11;8.13;;;5.00;;
36747;SDS011;22716;51.556;5.080;2023-06-10T00:10:38;6.05;;;5.40;;
36747;SDS011;22716;51.556;5.080;2023-06-10T00:13:06;8.47;;;5.60;;
36747;SDS011;22716;51.556;5.080;2023-06-10T00:15:35;9.73;;;5.60;;
36747;SDS011;22716;51.556;5.080;2023-06-10T00:18:02;9.40;;;5.93;;
36747;SDS011;22716;51.556;5.080;2023-06-10T00:20:29;7.30;;;5.72;;
36747;SDS011;22716;51.556;5.080;2023-06-10T00:22:55;7.10;;;5.70;;
36747;SDS011;22716;51.556;5.080;2023-06-10T00:25:26;10.13;;;5.15;;
36747;SDS011;22716;51.556;5.080;2023-06-10T00:27:53;8.73;;;5.30;;
36747;SDS011;22716;51.556;5.080;2023-06-10T00:30:20;5.47;;;4.68;;
36747;SDS011;22716;51.556;5.080;2023-06-10T00:32:47;8.50;;;5.53;;
36747;SDS011;22716;51.556;5.080;2023-06-10T00:35:15;12.57;;;5.72;;
36747;SDS011;22716;51.556;5.080;2023-06-10T00:37:42;8.77;;;5.63;;
36747;SDS011;22716;51.556;5.080;2023-06-10T00:40:09;8.00;;;5.32;;
36747;SDS011;22716;51.556;5.080;2023-06-10T00:42:37;7.32;;;5.80;;
36747;SDS011;22716;51.556;5.080;2023-06-10T00:45:04;8.45;;;5.00;;
36747;SDS011;22716;51.556;5.080;2023-06-10T00:47:32;5.82;;;5.25;;
36747;SDS011;22716;51.556;5.080;2023-06-10T00:50:02;9.37;;;5.53;;
36747;SDS011;22716;51.556;5.080;2023-06-10T00:52:29;9.50;;;6.30;;
36747;SDS011;22716;51.556;5.080;2023-06-10T00:54:56;9.00;;;5.78;;
36747;SDS011;22716;51.556;5.080;2023-06-10T00:57:24;8.95;;;6.35;;
36747;SDS011;22716;51.556;5.080;2023-06-10T00:59:51;9.63;;;6.30;;
36747;SDS011;22716;51.556;5.080;2023-06-10T01:02:18;8.55;;;4.65;;
36747;SDS011;22716;51.556;5.080;2023-06-10T01:04:45;7.85;;;5.15;;
36747;SDS011;22716;51.556;5.080;2023-06-10T01:07:17;6.18;;;5.30;;
36747;SDS011;22716;51.556;5.080;2023-06-10T01:09:52;5.43;;;4.82;;
36747;SDS011;22716;51.556;5.080;2023-06-10T01:12:25;9.27;;;5.97;;
36747;SDS011;22716;51.556;5.080;2023-06-10T01:14:58;7.50;;;5.68;;
36747;SDS011;22716;51.556;5.080;2023-06-10T01:17:25;9.17;;;5.57;;
36747;SDS011;22716;51.556;5.080;2023-06-10T01:19:53;7.15;;;5.28;;
36747;SDS011;22716;51.556;5.080;2023-06-10T01:22:24;14.32;;;6.82;;
36747;SDS011;22716;51.556;5.080;2023-06-10T01:24:54;7.70;;;5.93;;
36747;SDS011;22716;51.556;5.080;2023-06-10T01:27:25;6.38;;;4.93;;
36747;SDS011;22716;51.556;5.080;2023-06-10T01:29:56;7.85;;;5.30;;
36747;SDS011;22716;51.556;5.080;2023-06-10T01:32:30;7.75;;;4.97;;
36747;SDS011;22716;51.556;5.080;2023-06-10T01:35:01;7.07;;;5.18;;
36747;SDS011;22716;51.556;5.080;2023-06-10T01:37:30;10.00;;;6.33;;
36747;SDS011;22716;51.556;5.080;2023-06-10T01:39:58;6.60;;;5.15;;
36747;SDS011;22716;51.556;5.080;2023-06-10T01:42:26;6.90;;;5.93;;
36747;SDS011;22716;51.556;5.080;2023-06-10T01:44:54;9.95;;;6.40;;
36747;SDS011;22716;51.556;5.080;2023-06-10T01:47:21;9.43;;;7.15;;
36747;SDS011;22716;51.556;5.080;2023-06-10T01:49:48;13.73;;;6.97;;
36747;SDS011;22716;51.556;5.080;2023-06-10T01:52:15;8.18;;;6.07;;
36747;SDS011;22716;51.556;5.080;2023-06-10T01:54:43;7.60;;;5.83;;
36747;SDS011;22716;51.556;5.080;2023-06-10T01:57:10;8.40;;;5.25;;
36747;SDS011;22716;51.556;5.080;2023-06-10T01:59:37;7.35;;;4.82;;
36747;SDS011;22716;51.556;5.080;2023-06-10T02:02:04;9.07;;;5.10;;
36747;SDS011;22716;51.556;5.080;2023-06-10T02:04:31;5.93;;;5.10;;
36747;SDS011;22716;51.556;5.080;2023-06-10T02:06:58;7.18;;;5.47;;
36747;SDS011;22716;51.556;5.080;2023-06-10T02:09:29;8.37;;;5.97;;
36747;SDS011;22716;51.556;5.080;2023-06-10T02:11:57;5.93;;;5.10;;
36747;SDS011;22716;51.556;5.080;2023-06-10T02:14:25;7.45;;;5.82;;
36747;SDS011;22716;51.556;5.080;2023-06-10T02:16:51;8.47;;;4.93;;
36747;SDS011;22716;51.556;5.080;2023-06-10T02:19:21;10.47;;;6.27;;
36747;SDS011;22716;51.556;5.080;2023-06-10T02:21:48;7.80;;;6.03;;
36747;SDS011;22716;51.556;5.080;2023-06-10T02:24:16;5.97;;;5.37;;
36747;SDS011;22716;51.556;5.080;2023-06-10T02:26:43;13.52;;;5.22;;
36747;SDS011;22716;51.556;5.080;2023-06-10T02:29:11;6.43;;;5.73;;
36747;SDS011;22716;51.556;5.080;2023-06-10T02:31:38;7.85;;;6.00;;
36747;SDS011;22716;51.556;5.080;2023-06-10T02:34:06;8.10;;;5.50;;
36747;SDS011;22716;51.556;5.080;2023-06-10T02:36:34;7.30;;;5.37;;
36747;SDS011;22716;51.556;5.080;2023-06-10T02:39:01;9.87;;;5.47;;
36747;SDS011;22716;51.556;5.080;2023-06-10T02:41:29;8.23;;;6.00;;
36747;SDS011;22716;51.556;5.080;2023-06-10T02:43:56;7.23;;;5.67;;
36747;SDS011;22716;51.556;5.080;2023-06-10T02:46:27;9.48;;;6.00;;
36747;SDS011;22716;51.556;5.080;2023-06-10T02:48:55;5.97;;;5.37;;
36747;SDS011;22716;51.556;5.080;2023-06-10T02:51:22;9.00;;;6.77;;
36747;SDS011;22716;51.556;5.080;2023-06-10T02:53:49;7.63;;;5.57;;
36747;SDS011;22716;51.556;5.080;2023-06-10T02:56:16;14.73;;;6.13;;
36747;SDS011;22716;51.556;5.080;2023-06-10T02:58:43;7.97;;;6.87;;
36747;SDS011;22716;51.556;5.080;2023-06-10T03:01:11;8.63;;;6.47;;
36747;SDS011;22716;51.556;5.080;2023-06-10T03:03:39;11.43;;;7.37;;
36747;SDS011;22716;51.556;5.080;2023-06-10T03:06:08;8.63;;;6.25;;
36747;SDS011;22716;51.556;5.080;2023-06-10T03:08:35;10.47;;;7.00;;
36747;SDS011;22716;51.556;5.080;2023-06-10T03:11:02;8.52;;;7.13;;
36747;SDS011;22716;51.556;5.080;2023-06-10T03:13:29;8.47;;;7.30;;
36747;SDS011;22716;51.556;5.080;2023-06-10T03:15:55;9.20;;;6.03;;
36747;SDS011;22716;51.556;5.080;2023-06-10T03:18:26;7.87;;;6.93;;
36747;SDS011;22716;51.556;5.080;2023-06-10T03:20:55;10.97;;;6.73;;
36747;SDS011;22716;51.556;5.080;2023-06-10T03:23:22;10.37;;;6.73;;
36747;SDS011;22716;51.556;5.080;2023-06-10T03:25:49;10.63;;;6.37;;
36747;SDS011;22716;51.556;5.080;2023-06-10T03:28:16;9.90;;;7.47;;
36747;SDS011;22716;51.556;5.080;2023-06-10T03:30:43;9.87;;;6.93;;
36747;SDS011;22716;51.556;5.080;2023-06-10T03:33:10;11.80;;;7.03;;
36747;SDS011;22716;51.556;5.080;2023-06-10T03:35:37;9.57;;;7.20;;
36747;SDS011;22716;51.556;5.080;2023-06-10T03:38:05;8.52;;;7.43;;
36747;SDS011;22716;51.556;5.080;2023-06-10T03:40:32;10.43;;;7.27;;
36747;SDS011;22716;51.556;5.080;2023-06-10T03:42:59;7.97;;;7.17;;
36747;SDS011;22716;51.556;5.080;2023-06-10T03:45:26;10.65;;;7.53;;
36747;SDS011;22716;51.556;5.080;2023-06-10T03:47:54;12.87;;;8.00;;
36747;SDS011;22716;51.556;5.080;2023-06-10T03:50:21;14.83;;;7.83;;
36747;SDS011;22716;51.556;5.080;2023-06-10T03:52:49;11.93;;;7.80;;
36747;SDS011;22716;51.556;5.080;2023-06-10T03:55:18;12.47;;;7.63;;
36747;SDS011;22716;51.556;5.080;2023-06-10T03:57:47;8.85;;;6.90;;
36747;SDS011;22716;51.556;5.080;2023-06-10T04:00:14;13.35;;;6.68;;
36747;SDS011;22716;51.556;5.080;2023-06-10T04:02:42;9.23;;;7.43;;
36747;SDS011;22716;51.556;5.080;2023-06-10T04:05:13;12.87;;;8.27;;
36747;SDS011;22716;51.556;5.080;2023-06-10T04:07:41;9.43;;;8.32;;
36747;SDS011;22716;51.556;5.080;2023-06-10T04:10:09;13.40;;;7.80;;
36747;SDS011;22716;51.556;5.080;2023-06-10T04:12:38;9.50;;;7.50;;
36747;SDS011;22716;51.556;5.080;2023-06-10T04:15:06;9.63;;;7.47;;
36747;SDS011;22716;51.556;5.080;2023-06-10T04:17:34;12.40;;;7.60;;
36747;SDS011;22716;51.556;5.080;2023-06-10T04:20:01;12.93;;;8.90;;
36747;SDS011;22716;51.556;5.080;2023-06-10T04:22:29;11.27;;;7.57;;
36747;SDS011;22716;51.556;5.080;2023-06-10T04:24:56;8.97;;;7.73;;
36747;SDS011;22716;51.556;5.080;2023-06-10T04:27:23;12.10;;;7.97;;
36747;SDS011;22716;51.556;5.080;2023-06-10T04:29:51;13.00;;;8.93;;
36747;SDS011;22716;51.556;5.080;2023-06-10T04:32:18;13.33;;;8.63;;
36747;SDS011;22716;51.556;5.080;2023-06-10T04:34:45;14.60;;;8.13;;
36747;SDS011;22716;51.556;5.080;2023-06-10T04:37:12;11.10;;;8.48;;
36747;SDS011;22716;51.556;5.080;2023-06-10T04:39:40;11.13;;;8.60;;
36747;SDS011;22716;51.556;5.080;2023-06-10T04:42:08;11.03;;;8.90;;
36747;SDS011;22716;51.556;5.080;2023-06-10T04:44:36;12.27;;;8.50;;
36747;SDS011;22716;51.556;5.080;2023-06-10T04:47:05;11.52;;;8.68;;
36747;SDS011;22716;51.556;5.080;2023-06-10T04:49:33;11.27;;;8.47;;
36747;SDS011;22716;51.556;5.080;2023-06-10T04:52:00;14.53;;;9.83;;
36747;SDS011;22716;51.556;5.080;2023-06-10T04:54:29;12.70;;;9.83;;
36747;SDS011;22716;51.556;5.080;2023-06-10T04:56:58;10.90;;;9.30;;
36747;SDS011;22716;51.556;5.080;2023-06-10T04:59:24;11.27;;;8.55;;
36747;SDS011;22716;51.556;5.080;2023-06-10T05:01:51;10.40;;;8.23;;
36747;SDS011;22716;51.556;5.080;2023-06-10T05:04:19;11.57;;;8.87;;
36747;SDS011;22716;51.556;5.080;2023-06-10T05:06:46;12.43;;;8.43;;
36747;SDS011;22716;51.556;5.080;2023-06-10T05:09:13;11.70;;;8.93;;
36747;SDS011;22716;51.556;5.080;2023-06-10T05:11:40;17.77;;;9.10;;
36747;SDS011;22716;51.556;5.080;2023-06-10T05:14:07;12.80;;;8.83;;
36747;SDS011;22716;51.556;5.080;2023-06-10T05:16:34;13.57;;;9.70;;
36747;SDS011;22716;51.556;5.080;2023-06-10T05:19:01;12.33;;;8.97;;
36747;SDS011;22716;51.556;5.080;2023-06-10T05:21:29;10.60;;;9.20;;
36747;SDS011;22716;51.556;5.080;2023-06-10T05:23:56;11.13;;;8.57;;
36747;SDS011;22716;51.556;5.080;2023-06-10T05:26:23;10.83;;;9.63;;
36747;SDS011;22716;51.556;5.080;2023-06-10T05:28:50;12.33;;;8.30;;
36747;SDS011;22716;51.556;5.080;2023-06-10T05:31:17;11.07;;;9.10;;
36747;SDS011;22716;51.556;5.080;2023-06-10T05:33:45;10.45;;;8.32;;
36747;SDS011;22716;51.556;5.080;2023-06-10T05:36:11;10.73;;;7.72;;
36747;SDS011;22716;51.556;5.080;2023-06-10T05:38:39;13.40;;;9.30;;
36747;SDS011;22716;51.556;5.080;2023-06-10T05:41:06;12.67;;;8.60;;
36747;SDS011;22716;51.556;5.080;2023-06-10T05:43:33;14.03;;;8.03;;
36747;SDS011;22716;51.556;5.080;2023-06-10T05:46:00;9.67;;;6.80;;
36747;SDS011;22716;51.556;5.080;2023-06-10T05:48:27;13.32;;;7.57;;
36747;SDS011;22716;51.556;5.080;2023-06-10T05:50:54;12.00;;;7.80;;
36747;SDS011;22716;51.556;5.080;2023-06-10T05:53:21;13.40;;;7.82;;
36747;SDS011;22716;51.556;5.080;2023-06-10T05:55:49;7.85;;;7.00;;
36747;SDS011;22716;51.556;5.080;2023-06-10T05:58:16;10.48;;;7.00;;
36747;SDS011;22716;51.556;5.080;2023-06-10T06:00:43;9.98;;;6.72;;
36747;SDS011;22716;51.556;5.080;2023-06-10T06:03:10;13.13;;;7.90;;
36747;SDS011;22716;51.556;5.080;2023-06-10T06:05:36;8.77;;;7.83;;
36747;SDS011;22716;51.556;5.080;2023-06-10T06:08:03;8.37;;;7.50;;
36747;SDS011;22716;51.556;5.080;2023-06-10T06:10:31;13.27;;;7.20;;
36747;SDS011;22716;51.556;5.080;2023-06-10T06:12:59;11.27;;;7.13;;
36747;SDS011;22716;51.556;5.080;2023-06-10T06:15:26;10.93;;;7.30;;
36747;SDS011;22716;51.556;5.080;2023-06-10T06:17:53;13.47;;;7.60;;
36747;SDS011;22716;51.556;5.080;2023-06-10T06:20:21;12.77;;;7.27;;
36747;SDS011;22716;51.556;5.080;2023-06-10T06:22:49;10.63;;;7.23;;
36747;SDS011;22716;51.556;5.080;2023-06-10T06:25:15;9.37;;;7.00;;
36747;SDS011;22716;51.556;5.080;2023-06-10T06:27:42;10.85;;;7.18;;
36747;SDS011;22716;51.556;5.080;2023-06-10T06:30:11;11.63;;;6.50;;
36747;SDS011;22716;51.556;5.080;2023-06-10T06:32:38;11.57;;;7.10;;
36747;SDS011;22716;51.556;5.080;2023-06-10T06:35:05;11.40;;;6.72;;
36747;SDS011;22716;51.556;5.080;2023-06-10T06:37:33;11.88;;;7.68;;
36747;SDS011;22716;51.556;5.080;2023-06-10T06:40:01;11.57;;;8.00;;
36747;SDS011;22716;51.556;5.080;2023-06-10T06:42:29;11.93;;;7.35;;
36747;SDS011;22716;51.556;5.080;2023-06-10T06:44:56;11.73;;;7.47;;
36747;SDS011;22716;51.556;5.080;2023-06-10T06:47:24;18.83;;;7.45;;
36747;SDS011;22716;51.556;5.080;2023-06-10T06:49:51;14.95;;;6.80;;
36747;SDS011;22716;51.556;5.080;2023-06-10T06:52:18;15.80;;;7.38;;
36747;SDS011;22716;51.556;5.080;2023-06-10T06:54:45;9.98;;;6.65;;
36747;SDS011;22716;51.556;5.080;2023-06-10T06:57:12;13.95;;;6.75;;
36747;SDS011;22716;51.556;5.080;2023-06-10T06:59:39;11.63;;;6.72;;
36747;SDS011;22716;51.556;5.080;2023-06-10T07:02:05;11.57;;;6.15;;
36747;SDS011;22716;51.556;5.080;2023-06-10T07:04:34;11.60;;;7.10;;
36747;SDS011;22716;51.556;5.080;2023-06-10T07:07:01;11.90;;;7.32;;
36747;SDS011;22716;51.556;5.080;2023-06-10T07:09:27;14.23;;;6.85;;
36747;SDS011;22716;51.556;5.080;2023-06-10T07:11:55;9.48;;;7.07;;
36747;SDS011;22716;51.556;5.080;2023-06-10T07:14:22;11.83;;;7.13;;
36747;SDS011;22716;51.556;5.080;2023-06-10T07:16:48;10.68;;;6.53;;
36747;SDS011;22716;51.556;5.080;2023-06-10T07:19:15;14.63;;;6.53;;
36747;SDS011;22716;51.556;5.080;2023-06-10T07:21:43;11.02;;;6.53;;
36747;SDS011;22716;51.556;5.080;2023-06-10T07:24:10;10.40;;;6.30;;
36747;SDS011;22716;51.556;5.080;2023-06-10T07:26:37;10.00;;;6.03;;
36747;SDS011;22716;51.556;5.080;2023-06-10T07:29:03;10.32;;;6.30;;
36747;SDS011;22716;51.556;5.080;2023-06-10T07:31:30;9.30;;;6.32;;
36747;SDS011;22716;51.556;5.080;2023-06-10T07:33:57;10.50;;;5.97;;
36747;SDS011;22716;51.556;5.080;2023-06-10T07:36:23;11.15;;;6.07;;
36747;SDS011;22716;51.556;5.080;2023-06-10T07:38:54;12.18;;;6.05;;
36747;SDS011;22716;51.556;5.080;2023-06-10T07:41:22;9.35;;;6.43;;
36747;SDS011;22716;51.556;5.080;2023-06-10T07:43:51;12.73;;;6.30;;
36747;SDS011;22716;51.556;5.080;2023-06-10T07:46:20;10.02;;;6.03;;
36747;SDS011;22716;51.556;5.080;2023-06-10T07:48:47;8.20;;;6.18;;
36747;SDS011;22716;51.556;5.080;2023-06-10T07:51:15;8.55;;;6.05;;
36747;SDS011;22716;51.556;5.080;2023-06-10T07:53:42;10.43;;;5.97;;
36747;SDS011;22716;51.556;5.080;2023-06-10T07:56:10;8.98;;;6.43;;
36747;SDS011;22716;51.556;5.080;2023-06-10T07:58:37;13.48;;;6.25;;
36747;SDS011;22716;51.556;5.080;2023-06-10T08:01:04;9.18;;;6.35;;
36747;SDS011;22716;51.556;5.080;2023-06-10T08:03:31;9.70;;;5.70;;
36747;SDS011;22716;51.556;5.080;2023-06-10T08:05:57;10.77;;;6.43;;
36747;SDS011;22716;51.556;5.080;2023-06-10T08:08:24;6.93;;;5.82;;
36747;SDS011;22716;51.556;5.080;2023-06-10T08:10:51;9.82;;;5.85;;
36747;SDS011;22716;51.556;5.080;2023-06-10T08:13:19;11.30;;;5.75;;
36747;SDS011;22716;51.556;5.080;2023-06-10T08:15:46;12.03;;;6.37;;
36747;SDS011;22716;51.556;5.080;2023-06-10T08:18:16;9.18;;;6.03;;
36747;SDS011;22716;51.556;5.080;2023-06-10T08:20:43;7.88;;;5.72;;
36747;SDS011;22716;51.556;5.080;2023-06-10T08:23:09;10.70;;;5.28;;
36747;SDS011;22716;51.556;5.080;2023-06-10T08:25:36;10.23;;;5.53;;
36747;SDS011;22716;51.556;5.080;2023-06-10T08:28:03;7.75;;;5.10;;
36747;SDS011;22716;51.556;5.080;2023-06-10T08:30:31;8.90;;;5.47;;
36747;SDS011;22716;51.556;5.080;2023-06-10T08:32:59;9.85;;;5.70;;
36747;SDS011;22716;51.556;5.080;2023-06-10T08:35:26;7.28;;;5.38;;
36747;SDS011;22716;51.556;5.080;2023-06-10T08:37:53;12.82;;;5.93;;
36747;SDS011;22716;51.556;5.080;2023-06-10T08:40:20;12.60;;;6.15;;
36747;SDS011;22716;51.556;5.080;2023-06-10T08:42:48;8.07;;;5.07;;
36747;SDS011;22716;51.556;5.080;2023-06-10T08:45:20;11.63;;;5.55;;
36747;SDS011;22716;51.556;5.080;2023-06-10T08:47:50;8.73;;;5.43;;
36747;SDS011;22716;51.556;5.080;2023-06-10T08:50:19;9.10;;;5.65;;
36747;SDS011;22716;51.556;5.080;2023-06-10T08:52:46;9.80;;;6.68;;
36747;SDS011;22716;51.556;5.080;2023-06-10T08:55:18;5.75;;;4.93;;
36747;SDS011;22716;51.556;5.080;2023-06-10T08:57:51;13.73;;;6.28;;
36747;SDS011;22716;51.556;5.080;2023-06-10T09:00:18;5.78;;;4.53;;
36747;SDS011;22716;51.556;5.080;2023-06-10T09:02:45;9.50;;;6.57;;
36747;SDS011;22716;51.556;5.080;2023-06-10T09:05:14;8.95;;;5.28;;
36747;SDS011;22716;51.556;5.080;2023-06-10T09:07:42;9.20;;;5.75;;
36747;SDS011;22716;51.556;5.080;2023-06-10T09:10:10;7.63;;;5.22;;
36747;SDS011;22716;51.556;5.080;2023-06-10T09:12:38;8.30;;;6.38;;
36747;SDS011;22716;51.556;5.080;2023-06-10T09:15:05;10.43;;;5.95;;
36747;SDS011;22716;51.556;5.080;2023-06-10T09:17:33;6.53;;;5.85;;
36747;SDS011;22716;51.556;5.080;2023-06-10T09:20:01;6.90;;;5.35;;
36747;SDS011;22716;51.556;5.080;2023-06-10T09:22:30;17.33;;;6.25;;
36747;SDS011;22716;51.556;5.080;2023-06-10T09:25:04;10.07;;;5.65;;
36747;SDS011;22716;51.556;5.080;2023-06-10T09:27:32;13.60;;;6.13;;
36747;SDS011;22716;51.556;5.080;2023-06-10T09:30:10;9.10;;;7.72;;
36747;SDS011;22716;51.556;5.080;2023-06-10T09:32:50;11.10;;;6.25;;
36747;SDS011;22716;51.556;5.080;2023-06-10T09:35:17;9.13;;;4.85;;
36747;SDS011;22716;51.556;5.080;2023-06-10T09:37:45;12.50;;;6.78;;
36747;SDS011;22716;51.556;5.080;2023-06-10T09:40:12;11.75;;;6.10;;
36747;SDS011;22716;51.556;5.080;2023-06-10T09:42:39;9.25;;;5.95;;
36747;SDS011;22716;51.556;5.080;2023-06-10T09:45:06;9.25;;;5.03;;
36747;SDS011;22716;51.556;5.080;2023-06-10T09:47:33;8.75;;;4.60;;
36747;SDS011;22716;51.556;5.080;2023-06-10T09:50:00;13.05;;;5.50;;
36747;SDS011;22716;51.556;5.080;2023-06-10T09:52:30;7.40;;;5.53;;
36747;SDS011;22716;51.556;5.080;2023-06-10T09:55:00;7.47;;;5.05;;
36747;SDS011;22716;51.556;5.080;2023-06-10T09:57:30;8.43;;;5.05;;
36747;SDS011;22716;51.556;5.080;2023-06-10T09:59:59;8.52;;;5.28;;
36747;SDS011;22716;51.556;5.080;2023-06-10T10:02:30;11.95;;;6.50;;
36747;SDS011;22716;51.556;5.080;2023-06-10T10:05:01;8.07;;;5.45;;
36747;SDS011;22716;51.556;5.080;2023-06-10T10:07:29;13.40;;;5.68;;
36747;SDS011;22716;51.556;5.080;2023-06-10T10:09:56;8.38;;;5.88;;
36747;SDS011;22716;51.556;5.080;2023-06-10T10:12:24;8.50;;;4.60;;
36747;SDS011;22716;51.556;5.080;2023-06-10T10:14:52;8.60;;;5.07;;
36747;SDS011;22716;51.556;5.080;2023-06-10T10:17:22;7.47;;;4.35;;
36747;SDS011;22716;51.556;5.080;2023-06-10T10:19:50;9.10;;;4.68;;
36747;SDS011;22716;51.556;5.080;2023-06-10T10:22:25;9.77;;;5.70;;
36747;SDS011;22716;51.556;5.080;2023-06-10T10:24:53;9.95;;;5.10;;
36747;SDS011;22716;51.556;5.080;2023-06-10T10:27:26;8.45;;;5.65;;
36747;SDS011;22716;51.556;5.080;2023-06-10T10:29:55;9.02;;;5.28;;
36747;SDS011;22716;51.556;5.080;2023-06-10T10:32:26;6.70;;;4.82;;
36747;SDS011;22716;51.556;5.080;2023-06-10T10:35:00;11.63;;;5.15;;
36747;SDS011;22716;51.556;5.080;2023-06-10T10:37:35;12.68;;;5.32;;
36747;SDS011;22716;51.556;5.080;2023-06-10T10:40:02;11.27;;;4.45;;
36747;SDS011;22716;51.556;5.080;2023-06-10T10:42:33;16.50;;;4.93;;
36747;SDS011;22716;51.556;5.080;2023-06-10T10:45:02;6.60;;;4.40;;
36747;SDS011;22716;51.556;5.080;2023-06-10T10:47:30;7.60;;;4.88;;
36747;SDS011;22716;51.556;5.080;2023-06-10T10:49:58;11.73;;;4.78;;
36747;SDS011;22716;51.556;5.080;2023-06-10T10:52:25;8.00;;;5.85;;
36747;SDS011;22716;51.556;5.080;2023-06-10T10:54:53;7.78;;;5.03;;
36747;SDS011;22716;51.556;5.080;2023-06-10T10:57:21;8.95;;;5.38;;
36747;SDS011;22716;51.556;5.080;2023-06-10T10:59:54;9.00;;;5.32;;
36747;SDS011;22716;51.556;5.080;2023-06-10T11:02:32;8.32;;;4.55;;
36747;SDS011;22716;51.556;5.080;2023-06-10T11:05:04;8.52;;;6.03;;
36747;SDS011;22716;51.556;5.080;2023-06-10T11:07:32;10.23;;;5.15;;
36747;SDS011;22716;51.556;5.080;2023-06-10T11:10:00;6.78;;;4.78;;
36747;SDS011;22716;51.556;5.080;2023-06-10T11:15:20;7.55;;;4.70;;
36747;SDS011;22716;51.556;5.080;2023-06-10T11:23:38;8.93;;;5.13;;
36747;SDS011;22716;51.556;5.080;2023-06-10T11:26:10;7.05;;;4.70;;
36747;SDS011;22716;51.556;5.080;2023-06-10T11:29:03;9.82;;;4.93;;
36747;SDS011;22716;51.556;5.080;2023-06-10T11:31:37;8.20;;;5.57;;
36747;SDS011;22716;51.556;5.080;2023-06-10T11:34:09;7.90;;;5.47;;
36747;SDS011;22716;51.556;5.080;2023-06-10T11:36:37;11.13;;;6.53;;
36747;SDS011;22716;51.556;5.080;2023-06-10T11:39:07;7.38;;;5.15;;
36747;SDS011;22716;51.556;5.080;2023-06-10T11:41:36;7.63;;;5.60;;
36747;SDS011;22716;51.556;5.080;2023-06-10T11:44:08;5.72;;;5.15;;
36747;SDS011;22716;51.556;5.080;2023-06-10T11:46:37;10.88;;;6.10;;
36747;SDS011;22716;51.556;5.080;2023-06-10T11:49:04;9.77;;;5.28;;
36747;SDS011;22716;51.556;5.080;2023-06-10T11:51:33;23.88;;;16.63;;
36747;SDS011;22716;51.556;5.080;2023-06-10T11:54:01;9.43;;;6.03;;
36747;SDS011;22716;51.556;5.080;2023-06-10T11:56:29;17.25;;;6.35;;
36747;SDS011;22716;51.556;5.080;2023-06-10T11:58:57;11.52;;;5.22;;
36747;SDS011;22716;51.556;5.080;2023-06-10T12:01:30;10.85;;;5.90;;
36747;SDS011;22716;51.556;5.080;2023-06-10T12:04:00;12.45;;;9.27;;
36747;SDS011;22716;51.556;5.080;2023-06-10T12:06:37;7.38;;;4.95;;
36747;SDS011;22716;51.556;5.080;2023-06-10T12:09:05;9.85;;;6.20;;
36747;SDS011;22716;51.556;5.080;2023-06-10T12:11:33;14.10;;;6.03;;
36747;SDS011;22716;51.556;5.080;2023-06-10T12:14:00;15.70;;;6.55;;
36747;SDS011;22716;51.556;5.080;2023-06-10T12:16:29;9.48;;;7.00;;
36747;SDS011;22716;51.556;5.080;2023-06-10T12:19:02;6.80;;;6.10;;
36747;SDS011;22716;51.556;5.080;2023-06-10T12:21:31;17.77;;;5.90;;
36747;SDS011;22716;51.556;5.080;2023-06-10T12:23:59;11.40;;;5.60;;
36747;SDS011;22716;51.556;5.080;2023-06-10T12:26:33;9.57;;;4.82;;
36747;SDS011;22716;51.556;5.080;2023-06-10T12:29:02;6.88;;;5.20;;
36747;SDS011;22716;51.556;5.080;2023-06-10T12:31:56;7.30;;;5.10;;
36747;SDS011;22716;51.556;5.080;2023-06-10T12:34:29;10.40;;;5.55;;
36747;SDS011;22716;51.556;5.080;2023-06-10T12:37:01;7.32;;;5.30;;
36747;SDS011;22716;51.556;5.080;2023-06-10T12:39:29;6.82;;;5.57;;
36747;SDS011;22716;51.556;5.080;2023-06-10T12:41:57;18.65;;;6.50;;
36747;SDS011;22716;51.556;5.080;2023-06-10T12:44:28;10.02;;;5.45;;
36747;SDS011;22716;51.556;5.080;2023-06-10T12:46:56;12.63;;;5.07;;
36747;SDS011;22716;51.556;5.080;2023-06-10T12:49:23;9.25;;;6.35;;
36747;SDS011;22716;51.556;5.080;2023-06-10T12:51:51;12.88;;;5.15;;
36747;SDS011;22716;51.556;5.080;2023-06-10T12:54:19;10.02;;;5.03;;
36747;SDS011;22716;51.556;5.080;2023-06-10T12:56:45;9.60;;;6.75;;
36747;SDS011;22716;51.556;5.080;2023-06-10T12:59:13;7.75;;;6.03;;
36747;SDS011;22716;51.556;5.080;2023-06-10T13:01:40;7.80;;;4.85;;
36747;SDS011;22716;51.556;5.080;2023-06-10T13:04:07;12.68;;;5.55;;
36747;SDS011;22716;51.556;5.080;2023-06-10T13:06:35;6.78;;;5.63;;
36747;SDS011;22716;51.556;5.080;2023-06-10T13:09:06;14.38;;;4.60;;
36747;SDS011;22716;51.556;5.080;2023-06-10T13:11:33;8.00;;;5.13;;
36747;SDS011;22716;51.556;5.080;2023-06-10T13:14:01;11.32;;;5.45;;
36747;SDS011;22716;51.556;5.080;2023-06-10T13:16:30;8.82;;;4.88;;
36747;SDS011;22716;51.556;5.080;2023-06-10T13:18:58;5.28;;;4.55;;
36747;SDS011;22716;51.556;5.080;2023-06-10T13:21:26;7.13;;;4.78;;
36747;SDS011;22716;51.556;5.080;2023-06-10T13:23:54;6.68;;;5.35;;
36747;SDS011;22716;51.556;5.080;2023-06-10T13:26:22;8.13;;;6.65;;
36747;SDS011;22716;51.556;5.080;2023-06-10T13:28:48;8.23;;;5.13;;
36747;SDS011;22716;51.556;5.080;2023-06-10T13:31:15;7.25;;;4.43;;
36747;SDS011;22716;51.556;5.080;2023-06-10T13:33:42;8.07;;;5.10;;
36747;SDS011;22716;51.556;5.080;2023-06-10T13:36:09;7.75;;;5.05;;
36747;SDS011;22716;51.556;5.080;2023-06-10T13:38:37;12.20;;;4.88;;
36747;SDS011;22716;51.556;5.080;2023-06-10T13:41:04;8.70;;;5.43;;
36747;SDS011;22716;51.556;5.080;2023-06-10T13:43:33;5.88;;;5.22;;
36747;SDS011;22716;51.556;5.080;2023-06-10T13:46:00;9.70;;;5.47;;
36747;SDS011;22716;51.556;5.080;2023-06-10T13:48:26;7.13;;;5.10;;
36747;SDS011;22716;51.556;5.080;2023-06-10T13:50:53;6.57;;;4.75;;
36747;SDS011;22716;51.556;5.080;2023-06-10T13:53:20;7.72;;;5.40;;
36747;SDS011;22716;51.556;5.080;2023-06-10T13:55:47;6.47;;;4.82;;
36747;SDS011;22716;51.556;5.080;2023-06-10T13:58:14;10.45;;;4.60;;
36747;SDS011;22716;51.556;5.080;2023-06-10T14:00:41;7.33;;;4.83;;
36747;SDS011;22716;51.556;5.080;2023-06-10T14:03:09;6.55;;;4.97;;
36747;SDS011;22716;51.556;5.080;2023-06-10T14:05:36;4.90;;;4.40;;
36747;SDS011;22716;51.556;5.080;2023-06-10T14:08:02;9.32;;;4.88;;
36747;SDS011;22716;51.556;5.080;2023-06-10T14:10:30;10.75;;;4.97;;
36747;SDS011;22716;51.556;5.080;2023-06-10T14:12:56;9.90;;;4.40;;
36747;SDS011;22716;51.556;5.080;2023-06-10T14:15:23;7.72;;;4.72;;
36747;SDS011;22716;51.556;5.080;2023-06-10T14:17:51;14.13;;;4.63;;
36747;SDS011;22716;51.556;5.080;2023-06-10T14:20:17;11.18;;;4.82;;
36747;SDS011;22716;51.556;5.080;2023-06-10T14:22:44;7.43;;;5.13;;
36747;SDS011;22716;51.556;5.080;2023-06-10T14:25:11;6.97;;;4.22;;
36747;SDS011;22716;51.556;5.080;2023-06-10T14:27:38;8.23;;;4.65;;
36747;SDS011;22716;51.556;5.080;2023-06-10T14:30:05;7.00;;;4.88;;
36747;SDS011;22716;51.556;5.080;2023-06-10T14:32:33;8.77;;;4.80;;
36747;SDS011;22716;51.556;5.080;2023-06-10T14:35:01;4.82;;;4.20;;
36747;SDS011;22716;51.556;5.080;2023-06-10T14:37:28;6.57;;;4.90;;
36747;SDS011;22716;51.556;5.080;2023-06-10T14:39:55;8.20;;;4.53;;
36747;SDS011;22716;51.556;5.080;2023-06-10T14:42:22;6.37;;;4.40;;
36747;SDS011;22716;51.556;5.080;2023-06-10T14:44:49;6.22;;;5.00;;
36747;SDS011;22716;51.556;5.080;2023-06-10T14:47:15;7.95;;;4.65;;
36747;SDS011;22716;51.556;5.080;2023-06-10T14:49:42;6.00;;;4.85;;
36747;SDS011;22716;51.556;5.080;2023-06-10T14:52:11;6.78;;;4.93;;
36747;SDS011;22716;51.556;5.080;2023-06-10T14:54:38;7.60;;;5.75;;
36747;SDS011;22716;51.556;5.080;2023-06-10T14:57:05;5.35;;;4.60;;